sensor_id;sensor_type;location;lat;lon;timestamp;P1;durP1;ratioP1;P2;durP2;ratioP2
69026;SDS011;56080;47.594;19.116;2023-04-25T00:09:07;4.20;;;1.20;;
69026;SDS011;56080;47.594;19.116;2023-04-25T00:19:09;3.90;;;1.20;;
69026;SDS011;56080;47.594;19.116;2023-04-25T00:29:09;3.70;;;1.40;;
69026;SDS011;56080;47.594;19.116;2023-04-25T00:39:12;3.30;;;1.10;;
69026;SDS011;56080;47.594;19.116;2023-04-25T00:49:11;4.30;;;1.30;;
69026;SDS011;56080;47.594;19.116;2023-04-25T00:59:12;3.60;;;1.30;;
69026;SDS011;56080;47.594;19.116;2023-04-25T01:09:13;4.40;;;1.70;;
69026;SDS011;56080;47.594;19.116;2023-04-25T01:19:19;4.20;;;1.70;;
69026;SDS011;56080;47.594;19.116;2023-04-25T01:49:17;3.90;;;1.60;;
69026;SDS011;56080;47.594;19.116;2023-04-25T01:59:18;4.00;;;1.80;;
69026;SDS011;56080;47.594;19.116;2023-04-25T02:09:19;4.30;;;2.10;;
69026;SDS011;56080;47.594;19.116;2023-04-25T02:19:20;4.40;;;1.90;;
69026;SDS011;56080;47.594;19.116;2023-04-25T02:39:22;4.70;;;2.00;;
69026;SDS011;56080;47.594;19.116;2023-04-25T02:59:24;4.20;;;1.40;;
69026;SDS011;56080;47.594;19.116;2023-04-25T03:09:24;4.30;;;1.30;;
69026;SDS011;56080;47.594;19.116;2023-04-25T03:29:26;5.00;;;2.00;;
69026;SDS011;56080;47.594;19.116;2023-04-25T03:39:27;4.40;;;2.00;;
69026;SDS011;56080;47.594;19.116;2023-04-25T03:49:30;4.50;;;1.80;;
69026;SDS011;56080;47.594;19.116;2023-04-25T03:59:29;4.10;;;1.70;;
69026;SDS011;56080;47.594;19.116;2023-04-25T04:09:30;3.60;;;1.50;;
69026;SDS011;56080;47.594;19.116;2023-04-25T04:19:30;3.70;;;1.50;;
69026;SDS011;56080;47.594;19.116;2023-04-25T04:29:31;3.80;;;1.30;;
69026;SDS011;56080;47.594;19.116;2023-04-25T04:39:33;3.50;;;1.30;;
69026;SDS011;56080;47.594;19.116;2023-04-25T04:49:33;3.90;;;1.40;;
69026;SDS011;56080;47.594;19.116;2023-04-25T05:09:36;3.40;;;1.20;;
69026;SDS011;56080;47.594;19.116;2023-04-25T05:19:35;3.90;;;1.70;;
69026;SDS011;56080;47.594;19.116;2023-04-25T05:29:36;3.40;;;1.30;;
69026;SDS011;56080;47.594;19.116;2023-04-25T05:39:37;4.10;;;1.40;;
69026;SDS011;56080;47.594;19.116;2023-04-25T05:49:38;4.00;;;1.50;;
69026;SDS011;56080;47.594;19.116;2023-04-25T06:09:40;3.60;;;1.10;;
69026;SDS011;56080;47.594;19.116;2023-04-25T06:19:40;3.40;;;1.10;;
69026;SDS011;56080;47.594;19.116;2023-04-25T06:29:41;3.60;;;1.20;;
69026;SDS011;56080;47.594;19.116;2023-04-25T06:39:43;4.20;;;1.40;;
69026;SDS011;56080;47.594;19.116;2023-04-25T06:59:44;11.20;;;3.80;;
69026;SDS011;56080;47.594;19.116;2023-04-25T07:09:45;4.50;;;2.10;;
69026;SDS011;56080;47.594;19.116;2023-04-25T07:19:47;4.70;;;2.50;;
69026;SDS011;56080;47.594;19.116;2023-04-25T07:29:47;5.40;;;2.70;;
69026;SDS011;56080;47.594;19.116;2023-04-25T07:39:48;5.30;;;2.20;;
69026;SDS011;56080;47.594;19.116;2023-04-25T07:49:49;5.10;;;2.60;;
69026;SDS011;56080;47.594;19.116;2023-04-25T07:59:49;4.20;;;2.20;;
69026;SDS011;56080;47.594;19.116;2023-04-25T08:09:51;4.50;;;2.10;;
69026;SDS011;56080;47.594;19.116;2023-04-25T08:19:52;4.80;;;2.30;;
69026;SDS011;56080;47.594;19.116;2023-04-25T08:29:53;4.20;;;2.20;;
69026;SDS011;56080;47.594;19.116;2023-04-25T08:39:55;4.40;;;2.10;;
69026;SDS011;56080;47.594;19.116;2023-04-25T08:49:55;4.60;;;2.30;;
69026;SDS011;56080;47.594;19.116;2023-04-25T08:59:56;3.90;;;1.80;;
69026;SDS011;56080;47.594;19.116;2023-04-25T09:09:58;4.80;;;2.00;;
69026;SDS011;56080;47.594;19.116;2023-04-25T09:20:09;5.10;;;2.00;;
69026;SDS011;56080;47.594;19.116;2023-04-25T09:40:04;4.00;;;1.90;;
69026;SDS011;56080;47.594;19.116;2023-04-25T10:00:04;4.20;;;1.50;;
69026;SDS011;56080;47.594;19.116;2023-04-25T10:10:13;3.30;;;1.30;;
69026;SDS011;56080;47.594;19.116;2023-04-25T10:20:06;3.60;;;1.40;;
69026;SDS011;56080;47.594;19.116;2023-04-25T10:30:13;3.50;;;1.20;;
69026;SDS011;56080;47.594;19.116;2023-04-25T10:40:21;3.20;;;1.10;;
69026;SDS011;56080;47.594;19.116;2023-04-25T10:50:14;4.30;;;1.10;;
69026;SDS011;56080;47.594;19.116;2023-04-25T11:00:12;3.10;;;0.90;;
69026;SDS011;56080;47.594;19.116;2023-04-25T11:10:13;2.40;;;0.70;;
69026;SDS011;56080;47.594;19.116;2023-04-25T11:20:17;2.80;;;0.90;;
69026;SDS011;56080;47.594;19.116;2023-04-25T11:30:23;2.30;;;0.80;;
69026;SDS011;56080;47.594;19.116;2023-04-25T11:40:17;4.60;;;1.90;;
69026;SDS011;56080;47.594;19.116;2023-04-25T11:50:17;2.60;;;0.70;;
69026;SDS011;56080;47.594;19.116;2023-04-25T12:00:23;2.30;;;0.70;;
69026;SDS011;56080;47.594;19.116;2023-04-25T12:10:19;1.70;;;0.50;;
69026;SDS011;56080;47.594;19.116;2023-04-25T12:20:23;2.00;;;0.60;;
69026;SDS011;56080;47.594;19.116;2023-04-25T12:40:21;2.50;;;0.60;;
69026;SDS011;56080;47.594;19.116;2023-04-25T12:50:22;2.30;;;0.70;;
69026;SDS011;56080;47.594;19.116;2023-04-25T13:00:25;2.60;;;0.80;;
69026;SDS011;56080;47.594;19.116;2023-04-25T13:10:25;2.40;;;0.70;;
69026;SDS011;56080;47.594;19.116;2023-04-25T13:20:26;4.00;;;1.00;;
69026;SDS011;56080;47.594;19.116;2023-04-25T13:30:27;3.40;;;1.20;;
69026;SDS011;56080;47.594;19.116;2023-04-25T13:40:28;3.60;;;1.10;;
69026;SDS011;56080;47.594;19.116;2023-04-25T13:50:30;3.40;;;1.30;;
69026;SDS011;56080;47.594;19.116;2023-04-25T14:00:31;3.50;;;1.10;;
69026;SDS011;56080;47.594;19.116;2023-04-25T14:10:32;3.90;;;1.20;;
69026;SDS011;56080;47.594;19.116;2023-04-25T14:20:34;3.50;;;1.20;;
69026;SDS011;56080;47.594;19.116;2023-04-25T14:30:34;3.30;;;1.20;;
69026;SDS011;56080;47.594;19.116;2023-04-25T14:40:35;3.60;;;1.20;;
69026;SDS011;56080;47.594;19.116;2023-04-25T14:50:46;3.10;;;1.20;;
69026;SDS011;56080;47.594;19.116;2023-04-25T15:00:37;3.40;;;1.20;;
69026;SDS011;56080;47.594;19.116;2023-04-25T15:10:38;4.50;;;1.40;;
69026;SDS011;56080;47.594;19.116;2023-04-25T15:20:39;3.80;;;1.60;;
69026;SDS011;56080;47.594;19.116;2023-04-25T15:30:40;4.10;;;1.50;;
69026;SDS011;56080;47.594;19.116;2023-04-25T15:40:42;4.00;;;1.30;;
69026;SDS011;56080;47.594;19.116;2023-04-25T15:50:43;3.40;;;1.30;;
69026;SDS011;56080;47.594;19.116;2023-04-25T16:00:45;4.10;;;1.40;;
69026;SDS011;56080;47.594;19.116;2023-04-25T16:10:46;4.50;;;2.00;;
69026;SDS011;56080;47.594;19.116;2023-04-25T16:20:46;4.10;;;1.80;;
69026;SDS011;56080;47.594;19.116;2023-04-25T16:30:47;4.70;;;2.20;;
69026;SDS011;56080;47.594;19.116;2023-04-25T16:40:48;5.00;;;2.30;;
69026;SDS011;56080;47.594;19.116;2023-04-25T16:50:50;5.80;;;2.60;;
69026;SDS011;56080;47.594;19.116;2023-04-25T17:00:51;5.30;;;2.70;;
69026;SDS011;56080;47.594;19.116;2023-04-25T17:10:51;5.70;;;2.30;;
69026;SDS011;56080;47.594;19.116;2023-04-25T17:20:52;4.90;;;2.30;;
69026;SDS011;56080;47.594;19.116;2023-04-25T17:30:53;4.30;;;1.90;;
69026;SDS011;56080;47.594;19.116;2023-04-25T17:40:56;4.80;;;2.00;;
69026;SDS011;56080;47.594;19.116;2023-04-25T17:50:55;5.20;;;2.10;;
69026;SDS011;56080;47.594;19.116;2023-04-25T18:00:56;4.80;;;2.20;;
69026;SDS011;56080;47.594;19.116;2023-04-25T18:10:57;5.10;;;2.30;;
69026;SDS011;56080;47.594;19.116;2023-04-25T18:30:59;5.40;;;2.60;;
69026;SDS011;56080;47.594;19.116;2023-04-25T18:41:10;5.20;;;2.50;;
69026;SDS011;56080;47.594;19.116;2023-04-25T18:51:02;5.70;;;2.50;;
69026;SDS011;56080;47.594;19.116;2023-04-25T19:01:02;4.90;;;1.90;;
69026;SDS011;56080;47.594;19.116;2023-04-25T19:11:04;4.80;;;1.90;;
69026;SDS011;56080;47.594;19.116;2023-04-25T19:21:04;4.50;;;2.10;;
69026;SDS011;56080;47.594;19.116;2023-04-25T19:31:05;5.10;;;2.00;;
69026;SDS011;56080;47.594;19.116;2023-04-25T19:41:06;4.50;;;2.10;;
69026;SDS011;56080;47.594;19.116;2023-04-25T20:01:07;5.40;;;2.10;;
69026;SDS011;56080;47.594;19.116;2023-04-25T20:11:08;5.30;;;2.00;;
69026;SDS011;56080;47.594;19.116;2023-04-25T20:21:09;4.40;;;1.90;;
69026;SDS011;56080;47.594;19.116;2023-04-25T20:31:10;4.10;;;1.70;;
69026;SDS011;56080;47.594;19.116;2023-04-25T20:41:10;4.80;;;2.20;;
69026;SDS011;56080;47.594;19.116;2023-04-25T20:51:11;5.10;;;2.00;;
69026;SDS011;56080;47.594;19.116;2023-04-25T21:01:13;4.00;;;1.80;;
69026;SDS011;56080;47.594;19.116;2023-04-25T21:11:13;4.60;;;2.00;;
69026;SDS011;56080;47.594;19.116;2023-04-25T21:21:14;4.40;;;1.90;;
69026;SDS011;56080;47.594;19.116;2023-04-25T21:31:14;4.20;;;2.00;;
69026;SDS011;56080;47.594;19.116;2023-04-25T21:41:15;5.50;;;2.10;;
69026;SDS011;56080;47.594;19.116;2023-04-25T21:51:15;4.60;;;2.10;;
69026;SDS011;56080;47.594;19.116;2023-04-25T22:01:16;5.50;;;2.30;;
69026;SDS011;56080;47.594;19.116;2023-04-25T22:11:17;4.40;;;1.90;;
69026;SDS011;56080;47.594;19.116;2023-04-25T22:21:19;5.60;;;2.20;;
69026;SDS011;56080;47.594;19.116;2023-04-25T22:31:19;4.80;;;2.30;;
69026;SDS011;56080;47.594;19.116;2023-04-25T22:41:19;5.30;;;2.40;;
69026;SDS011;56080;47.594;19.116;2023-04-25T22:51:20;4.30;;;2.00;;
69026;SDS011;56080;47.594;19.116;2023-04-25T23:01:21;5.00;;;2.20;;
69026;SDS011;56080;47.594;19.116;2023-04-25T23:11:22;5.10;;;2.20;;
69026;SDS011;56080;47.594;19.116;2023-04-25T23:21:22;5.00;;;2.40;;
69026;SDS011;56080;47.594;19.116;2023-04-25T23:31:23;5.30;;;2.60;;
69026;SDS011;56080;47.594;19.116;2023-04-25T23:41:24;4.90;;;2.40;;
69026;SDS011;56080;47.594;19.116;2023-04-25T23:51:24;5.30;;;2.70;;
